Time;durP1;ratioP1;P1;durP2;ratioP2;P2;SDS_P1;SDS_P2;PMS_P1;PMS_P2;Temp;Humidity;BMP_temperature;BMP_pressure;BME280_temperature;BME280_humidity;BME280_pressure;Samples;Min_cycle;Max_cycle;Signal;HPM_P1;HPM_P2
2021/11/26 00:00:24;;;;;;;31.27;20.20;;;;;;;2.58;66.39;98097.38;2617906;46;20065;-68
2021/11/26 00:02:54;;;;;;;32.72;19.75;;;;;;;2.55;66.70;98095.09;2618080;54;20042;-67
2021/11/26 00:05:28;;;;;;;30.63;19.67;;;;;;;2.55;66.86;98090.69;2617636;47;20046;-67
2021/11/26 00:07:58;;;;;;;29.45;19.55;;;;;;;2.52;66.62;98096.22;2617670;47;20041;-67
2021/11/26 00:10:27;;;;;;;30.88;19.77;;;;;;;2.26;67.40;98098.09;2618487;54;20043;-67
2021/11/26 00:13:04;;;;;;;32.17;20.80;;;;;;;2.17;68.00;98084.22;2617667;54;20033;-68
2021/11/26 00:15:41;;;;;;;34.75;20.48;;;;;;;2.25;68.23;98083.44;2617693;54;20038;-67
2021/11/26 00:18:17;;;;;;;29.10;18.60;;;;;;;2.28;68.00;98075.25;2619407;47;20035;-67
2021/11/26 00:20:48;;;;;;;30.83;19.85;;;;;;;2.27;68.40;98081.47;2619798;54;20030;-68
2021/11/26 00:23:18;;;;;;;28.67;18.30;;;;;;;2.29;68.14;98069.09;2617624;54;20034;-67
2021/11/26 00:25:48;;;;;;;32.95;19.25;;;;;;;2.28;68.52;98076.06;2618354;39;20688;-68
2021/11/26 00:28:20;;;;;;;30.30;18.88;;;;;;;2.19;68.34;98083.06;2618316;54;20547;-68
2021/11/26 00:30:51;;;;;;;29.65;18.25;;;;;;;2.13;68.74;98088.91;2618937;39;20421;-68
2021/11/26 00:33:21;;;;;;;28.85;18.75;;;;;;;2.20;69.12;98083.88;2617381;54;20599;-66
2021/11/26 00:35:51;;;;;;;32.67;18.60;;;;;;;2.27;68.83;98086.69;2618774;54;20047;-66
2021/11/26 00:38:20;;;;;;;30.77;18.65;;;;;;;2.26;68.87;98080.66;2618138;54;20030;-67
2021/11/26 00:40:51;;;;;;;31.73;19.42;;;;;;;2.26;69.28;98080.66;2617722;54;20038;-69
2021/11/26 00:43:23;;;;;;;27.08;18.05;;;;;;;2.35;69.00;98068.44;2617961;54;20038;-68
2021/11/26 00:45:53;;;;;;;28.67;17.52;;;;;;;2.39;69.15;98072.38;2618418;54;20046;-68
2021/11/26 00:48:23;;;;;;;28.60;18.55;;;;;;;2.45;69.20;98079.59;2618413;54;20034;-68
2021/11/26 00:50:53;;;;;;;27.92;19.05;;;;;;;2.45;68.79;98071.75;2618412;54;20027;-67
2021/11/26 00:53:23;;;;;;;30.38;19.65;;;;;;;2.51;68.70;98072.91;2618315;54;20030;-67
2021/11/26 00:55:52;;;;;;;32.25;20.15;;;;;;;2.55;68.82;98079.44;2618430;54;20034;-67
2021/11/26 00:58:25;;;;;;;31.35;19.15;;;;;;;2.55;68.88;98069.81;2618633;39;20413;-67
2021/11/26 01:00:54;;;;;;;30.85;19.13;;;;;;;2.60;68.98;98064.09;2618179;54;20043;-68
2021/11/26 01:03:25;;;;;;;31.35;19.80;;;;;;;2.68;68.98;98062.34;2617880;47;20034;-67
2021/11/26 01:05:55;;;;;;;44.05;25.10;;;;;;;2.72;68.67;98055.00;2618062;54;20029;-68
2021/11/26 01:08:25;;;;;;;36.58;21.77;;;;;;;2.82;68.56;98063.50;2617836;54;20042;-66
2021/11/26 01:10:55;;;;;;;31.02;19.58;;;;;;;2.86;68.46;98058.78;2618269;54;20030;-70
2021/11/26 01:13:27;;;;;;;30.33;19.38;;;;;;;2.91;68.24;98044.25;2617975;54;20073;-66
2021/11/26 01:15:58;;;;;;;34.53;21.67;;;;;;;2.88;67.93;98041.16;2618368;39;20450;-67
2021/11/26 01:18:27;;;;;;;40.33;24.00;;;;;;;2.81;68.10;98035.75;2618160;54;20050;-67
2021/11/26 01:20:57;;;;;;;36.75;23.80;;;;;;;2.81;67.98;98037.56;2617336;54;20026;-67
2021/11/26 01:23:27;;;;;;;32.42;21.08;;;;;;;2.84;68.05;98030.22;2618442;39;20859;-66
2021/11/26 01:25:57;;;;;;;35.00;23.50;;;;;;;2.86;67.80;98032.69;2618469;54;20023;-66
2021/11/26 01:28:29;;;;;;;36.08;23.38;;;;;;;2.78;67.75;98023.06;2618452;54;20050;-69
2021/11/26 01:31:03;;;;;;;31.30;20.65;;;;;;;2.62;67.78;98017.81;2618226;47;20048;-68
2021/11/26 01:33:37;;;;;;;40.92;23.85;;;;;;;2.60;68.36;98014.53;2618024;54;20026;-66
2021/11/26 01:36:07;;;;;;;35.80;22.13;;;;;;;2.60;68.57;98002.28;2618642;54;20046;-68
2021/11/26 01:38:37;;;;;;;33.40;21.83;;;;;;;2.63;68.30;98003.78;2618472;47;20043;-68
2021/11/26 01:41:09;;;;;;;31.00;20.35;;;;;;;2.73;68.31;98001.81;2618819;54;20038;-70
2021/11/26 01:43:41;;;;;;;31.90;19.02;;;;;;;2.81;68.26;98003.63;2618939;54;20030;-68
2021/11/26 01:46:12;;;;;;;30.25;20.05;;;;;;;2.89;67.95;98001.81;2618339;54;20042;-68
2021/11/26 01:48:45;;;;;;;32.05;19.60;;;;;;;2.84;67.94;98001.50;2618506;54;20031;-67
2021/11/26 01:51:16;;;;;;;31.80;19.17;;;;;;;2.84;68.14;97998.88;2622037;54;20027;-68
2021/11/26 01:53:46;;;;;;;32.25;19.95;;;;;;;2.93;67.48;97991.88;2622615;54;20564;-68
2021/11/26 01:56:16;;;;;;;30.88;19.48;;;;;;;2.92;67.59;97995.47;2623474;54;20031;-67
2021/11/26 01:58:48;;;;;;;28.92;19.35;;;;;;;2.89;67.48;97991.38;2624233;54;20038;-67
2021/11/26 02:01:17;;;;;;;31.23;19.60;;;;;;;2.85;67.81;97990.06;2623711;47;20041;-67
2021/11/26 02:03:47;;;;;;;29.67;18.65;;;;;;;2.90;68.00;97984.38;2624612;54;20537;-68
2021/11/26 02:06:18;;;;;;;32.95;21.48;;;;;;;2.92;67.81;97970.16;2624830;39;20423;-68
2021/11/26 02:08:48;;;;;;;32.20;20.80;;;;;;;2.88;67.36;97965.44;2624495;54;20034;-67
2021/11/26 02:11:17;;;;;;;31.60;20.25;;;;;;;2.82;67.30;97955.69;2624517;54;20034;-67
2021/11/26 02:13:50;;;;;;;33.33;20.85;;;;;;;2.83;67.40;97944.25;2624747;54;20042;-67
2021/11/26 02:16:19;;;;;;;34.47;20.23;;;;;;;2.83;67.33;97939.03;2623849;54;20065;-67
2021/11/26 02:18:50;;;;;;;29.38;19.63;;;;;;;2.74;67.57;97935.63;2622760;54;20077;-67
2021/11/26 02:21:24;;;;;;;31.08;20.50;;;;;;;2.69;67.33;97943.94;2623291;51;20046;-67
2021/11/26 02:23:54;;;;;;;;;;;;;;;2.73;67.77;97932.19;2623723;54;20046;-67
2021/11/26 02:26:23;;;;;;;31.17;19.52;;;;;;;2.76;67.62;97928.41;2623244;47;19939;-67
2021/11/26 02:28:53;;;;;;;29.63;18.98;;;;;;;2.77;67.49;97931.84;2622860;54;20066;-68
2021/11/26 02:31:23;;;;;;;31.70;18.67;;;;;;;2.75;67.76;97929.41;2621533;54;20031;-68
2021/11/26 02:33:52;;;;;;;32.40;20.38;;;;;;;2.71;67.22;97928.09;2621795;54;20034;-68
2021/11/26 02:36:25;;;;;;;31.83;19.40;;;;;;;2.77;67.17;97913.56;2621597;54;20030;-68
2021/11/26 02:38:55;;;;;;;34.90;20.90;;;;;;;2.75;67.41;97905.91;2620708;54;20030;-68
2021/11/26 02:41:25;;;;;;;31.15;19.52;;;;;;;2.70;67.31;97911.63;2619432;54;20023;-67
2021/11/26 02:43:54;;;;;;;29.40;19.80;;;;;;;2.63;67.45;97908.03;2619152;54;20045;-67
2021/11/26 02:46:24;;;;;;;34.47;19.83;;;;;;;2.58;67.45;97909.53;2618610;54;20031;-67
2021/11/26 02:48:54;;;;;;;31.17;19.85;;;;;;;2.59;67.47;97911.16;2618209;54;20114;-67
2021/11/26 02:51:26;;;;;;;32.22;20.70;;;;;;;2.57;67.90;97913.09;2617845;39;20399;-67
2021/11/26 02:53:56;;;;;;;34.58;20.38;;;;;;;2.57;68.16;97910.47;2618184;54;20023;-67
2021/11/26 02:56:26;;;;;;;29.17;20.13;;;;;;;2.47;68.27;97908.84;2618079;54;20034;-67
2021/11/26 02:58:57;;;;;;;33.78;21.30;;;;;;;2.47;68.28;97902.81;2617414;54;20026;-67
2021/11/26 03:01:26;;;;;;;33.13;21.55;;;;;;;2.48;68.41;97904.44;2617792;54;20029;-68
2021/11/26 03:03:56;;;;;;;35.38;21.75;;;;;;;2.48;68.11;97907.88;2617231;54;20034;-67
2021/11/26 03:06:29;;;;;;;33.97;20.40;;;;;;;2.48;68.64;97894.81;2618662;54;20033;-67
2021/11/26 03:08:58;;;;;;;36.72;21.42;;;;;;;2.55;68.38;97892.38;2618286;54;20035;-67
2021/11/26 03:11:28;;;;;;;33.97;21.60;;;;;;;2.56;68.36;97887.97;2618541;54;20041;-67
2021/11/26 03:13:58;;;;;;;37.67;22.35;;;;;;;2.62;68.09;97892.56;2618179;54;20042;-67
2021/11/26 03:16:27;;;;;;;37.30;22.25;;;;;;;2.64;68.37;97880.97;2618633;54;20030;-67
2021/11/26 03:18:58;;;;;;;37.45;23.35;;;;;;;2.66;67.97;97878.22;2618570;39;20422;-67
2021/11/26 03:21:30;;;;;;;32.90;20.95;;;;;;;2.68;68.16;97884.06;2617912;47;20046;-68
2021/11/26 03:24:00;;;;;;;37.00;23.15;;;;;;;2.67;68.05;97872.00;2618395;54;20129;-66
2021/11/26 03:26:29;;;;;;;38.10;22.63;;;;;;;2.64;68.51;97867.09;2619039;54;20027;-67
2021/11/26 03:28:59;;;;;;;35.25;23.50;;;;;;;2.62;68.22;97872.50;2617971;47;20069;-67
2021/11/26 03:31:29;;;;;;;41.28;23.98;;;;;;;2.61;67.98;97872.66;2618891;54;20565;-67
2021/11/26 03:33:58;;;;;;;33.90;21.20;;;;;;;2.66;68.24;97873.78;2618587;54;20039;-67
2021/11/26 03:36:31;;;;;;;36.35;22.02;;;;;;;2.64;68.13;97865.31;2617903;47;20041;-67
2021/11/26 03:39:00;;;;;;;32.58;20.83;;;;;;;2.65;68.38;97866.13;2618569;54;20061;-68
2021/11/26 03:41:30;;;;;;;34.42;21.45;;;;;;;2.65;68.58;97869.56;2617970;47;20046;-67
2021/11/26 03:44:00;;;;;;;31.58;20.58;;;;;;;2.65;68.35;97860.91;2618389;54;20190;-67
2021/11/26 03:46:29;;;;;;;33.05;20.42;;;;;;;2.64;68.18;97865.31;2618276;39;20422;-67
2021/11/26 03:48:59;;;;;;;33.72;20.50;;;;;;;2.61;68.44;97854.38;2617839;47;20037;-67
2021/11/26 03:51:33;;;;;;;31.92;19.30;;;;;;;2.60;68.34;97858.78;2618941;39;20452;-67
2021/11/26 03:54:02;;;;;;;31.85;20.85;;;;;;;2.54;68.81;97856.03;2617843;54;20042;-67
2021/11/26 03:56:32;;;;;;;36.42;20.20;;;;;;;2.49;68.51;97856.53;2617545;54;20038;-68
2021/11/26 03:59:05;;;;;;;34.95;21.83;;;;;;;2.52;69.14;97840.53;2618186;54;20030;-67
2021/11/26 04:01:35;;;;;;;33.38;20.08;;;;;;;2.58;68.95;97841.69;2617664;47;20038;-67
2021/11/26 04:04:05;;;;;;;31.85;21.13;;;;;;;2.63;68.66;97834.16;2618397;54;20042;-68
2021/11/26 04:06:38;;;;;;;33.58;21.85;;;;;;;2.72;68.87;97835.78;2618577;39;20464;-66
2021/11/26 04:09:08;;;;;;;34.47;23.85;;;;;;;2.69;68.50;97828.28;2617670;47;20034;-67
2021/11/26 04:11:37;;;;;;;40.97;24.23;;;;;;;2.65;68.74;97820.00;2618330;39;20445;-67
2021/11/26 04:14:07;;;;;;;44.67;27.55;;;;;;;2.68;68.80;97817.03;2618381;54;20042;-67
2021/11/26 04:16:37;;;;;;;38.72;24.33;;;;;;;2.67;68.57;97822.41;2617643;54;20086;-67
2021/11/26 04:19:06;;;;;;;38.75;24.23;;;;;;;2.65;68.42;97826.97;2619817;39;20422;-67
2021/11/26 04:21:39;;;;;;;49.33;27.85;;;;;;;2.66;68.83;97816.38;2620161;39;20457;-67
2021/11/26 04:24:08;;;;;;;43.10;25.52;;;;;;;2.67;68.94;97819.81;2619011;54;20077;-67
2021/11/26 04:26:38;;;;;;;41.20;24.60;;;;;;;2.72;68.45;97807.88;2617711;52;20030;-68
2021/11/26 04:29:08;;;;;;;37.70;23.95;;;;;;;2.83;68.53;97805.91;2618504;54;20042;-68
2021/11/26 04:31:38;;;;;;;38.80;23.85;;;;;;;2.84;68.22;97808.34;2618240;46;20050;-68
2021/11/26 04:34:07;;;;;;;38.33;24.75;;;;;;;2.86;68.58;97806.38;2618423;54;20027;-67
2021/11/26 04:36:39;;;;;;;36.20;23.55;;;;;;;2.90;67.73;97812.09;2617505;54;20034;-68
2021/11/26 04:39:09;;;;;;;37.10;22.63;;;;;;;2.81;68.48;97806.06;2618230;54;20568;-68
2021/11/26 04:41:38;;;;;;;35.60;23.60;;;;;;;2.76;68.16;97789.28;2618898;54;20063;-68
2021/11/26 04:44:08;;;;;;;39.38;23.45;;;;;;;2.76;68.64;97794.50;2619086;54;20053;-68
2021/11/26 04:46:38;;;;;;;37.40;24.50;;;;;;;2.70;68.37;97791.59;2619515;39;20481;-68
2021/11/26 04:49:07;;;;;;;39.58;24.20;;;;;;;2.73;68.54;97787.81;2618932;54;20034;-68
2021/11/26 04:51:39;;;;;;;38.97;23.83;;;;;;;2.63;67.96;97788.00;2619073;54;20042;-67
2021/11/26 04:54:09;;;;;;;40.55;24.60;;;;;;;2.63;68.50;97790.63;2618610;54;20038;-69
2021/11/26 04:56:39;;;;;;;39.13;24.20;;;;;;;2.62;68.43;97780.34;2617875;47;20042;-69
2021/11/26 04:59:08;;;;;;;38.00;24.05;;;;;;;2.65;68.68;97787.84;2619479;39;20461;-69
2021/11/26 05:01:38;;;;;;;38.90;24.23;;;;;;;2.71;68.61;97782.78;2618731;54;20065;-70
2021/11/26 05:04:08;;;;;;;36.65;23.33;;;;;;;2.77;68.80;97778.66;2618905;54;20075;-68
2021/11/26 05:06:42;;;;;;;40.88;24.60;;;;;;;2.83;69.07;97772.78;2619912;39;20450;-67
2021/11/26 05:09:15;;;;;;;36.45;24.38;;;;;;;2.90;68.82;97768.53;2619028;54;20042;-67
2021/11/26 05:11:45;;;;;;;40.70;23.83;;;;;;;2.91;68.66;97770.16;2617970;47;20033;-67
2021/11/26 05:14:18;;;;;;;42.20;25.50;;;;;;;2.91;68.25;97767.53;2618444;54;20042;-66
2021/11/26 05:16:48;;;;;;;38.78;24.55;;;;;;;2.91;68.28;97757.09;2618671;46;20069;-66
2021/11/26 05:19:18;;;;;;;39.47;25.33;;;;;;;2.92;68.22;97760.50;2618798;54;20034;-68
2021/11/26 05:21:50;;;;;;;38.50;25.45;;;;;;;2.84;68.63;97756.13;2618342;54;20049;-68
2021/11/26 05:24:19;;;;;;;38.58;24.63;;;;;;;2.83;68.25;97749.28;2619116;54;20038;-67
2021/11/26 05:26:49;;;;;;;39.47;25.27;;;;;;;2.84;68.46;97748.31;2619017;54;20034;-68
2021/11/26 05:29:19;;;;;;;40.20;25.25;;;;;;;2.79;68.87;97740.16;2618671;54;20038;-68
2021/11/26 05:31:48;;;;;;;38.50;25.17;;;;;;;2.82;68.72;97744.25;2618680;54;20039;-68
2021/11/26 05:34:18;;;;;;;42.53;26.63;;;;;;;2.79;69.03;97745.41;2618976;54;20045;-68
2021/11/26 05:36:50;;;;;;;41.80;26.80;;;;;;;2.76;68.89;97744.91;2619012;54;20077;-68
2021/11/26 05:39:20;;;;;;;37.58;24.77;;;;;;;2.72;69.39;97734.00;2618494;46;20029;-69
2021/11/26 05:41:50;;;;;;;43.92;28.05;;;;;;;2.77;69.44;97733.47;2618545;54;20022;-68
2021/11/26 05:44:19;;;;;;;40.28;26.38;;;;;;;2.84;69.41;97729.22;2618522;54;20051;-68
2021/11/26 05:46:49;;;;;;;39.33;24.77;;;;;;;2.95;69.08;97734.06;2620251;47;20293;-68
2021/11/26 05:49:18;;;;;;;43.53;26.08;;;;;;;2.92;69.14;97721.34;2623315;47;20035;-68
2021/11/26 05:51:51;;;;;;;38.95;25.50;;;;;;;2.92;68.93;97716.94;2623855;54;20027;-68
2021/11/26 05:54:20;;;;;;;40.92;24.88;;;;;;;2.93;68.99;97720.38;2624246;54;20046;-69
2021/11/26 05:56:50;;;;;;;38.60;25.35;;;;;;;2.96;69.21;97713.00;2624355;47;20030;-68
2021/11/26 05:59:22;;;;;;;43.17;26.90;;;;;;;2.95;68.82;97708.78;2627903;39;20411;-67
2021/11/26 06:01:52;;;;;;;39.88;25.08;;;;;;;2.85;68.97;97715.19;2622889;47;20034;-68
2021/11/26 06:04:22;;;;;;;39.78;25.48;;;;;;;2.87;69.10;97710.63;2624194;54;20090;-69
2021/11/26 06:06:54;;;;;;;45.10;26.95;;;;;;;2.95;69.16;97711.38;2624221;39;20418;-68
2021/11/26 06:09:24;;;;;;;41.10;27.38;;;;;;;3.00;69.22;97707.44;2623562;54;20045;-68
2021/11/26 06:11:53;;;;;;;40.25;26.73;;;;;;;2.98;68.92;97698.00;2623307;54;20041;-68
2021/11/26 06:14:23;;;;;;;40.72;26.42;;;;;;;2.97;69.01;97701.56;2623675;54;20026;-68
2021/11/26 06:16:52;;;;;;;40.85;25.40;;;;;;;2.96;68.74;97686.09;2623414;54;20050;-70
2021/11/26 06:19:22;;;;;;;41.72;26.10;;;;;;;2.95;68.73;97685.28;2626383;39;20551;-68
2021/11/26 06:21:54;;;;;;;44.13;26.88;;;;;;;2.95;68.82;97676.63;2623672;47;20038;-68
2021/11/26 06:24:24;;;;;;;42.25;26.77;;;;;;;2.93;68.75;97678.59;2624079;54;20550;-68
2021/11/26 06:26:53;;;;;;;40.70;26.35;;;;;;;2.86;69.03;97678.47;2623234;54;20562;-68
2021/11/26 06:29:23;;;;;;;45.08;27.85;;;;;;;2.77;69.07;97673.47;2623880;54;20029;-68
2021/11/26 06:31:52;;;;;;;45.95;29.23;;;;;;;2.75;69.27;97671.03;2622113;39;20429;-68
2021/11/26 06:34:23;;;;;;;42.40;27.02;;;;;;;2.75;69.50;97672.81;2621581;39;20428;-68
2021/11/26 06:36:55;;;;;;;46.85;28.80;;;;;;;2.73;69.49;97670.38;2620778;54;20568;-68
2021/11/26 06:39:25;;;;;;;43.33;27.70;;;;;;;2.80;69.48;97654.84;2620063;39;20442;-68
2021/11/26 06:41:54;;;;;;;41.47;26.50;;;;;;;2.71;68.81;97654.09;2621345;54;20035;-67
2021/11/26 06:44:24;;;;;;;47.92;27.67;;;;;;;2.77;69.62;97647.34;2621989;31;20521;-68
2021/11/26 06:46:54;;;;;;;44.42;27.08;;;;;;;2.79;68.98;97643.59;2621981;54;20030;-67
2021/11/26 06:49:24;;;;;;;46.28;27.58;;;;;;;2.76;68.97;97646.56;2623062;39;20473;-67
2021/11/26 06:51:56;;;;;;;44.97;27.75;;;;;;;2.73;69.15;97644.28;2620442;54;20027;-67
2021/11/26 06:54:26;;;;;;;44.30;28.83;;;;;;;2.72;69.09;97637.44;2620953;54;20030;-67
2021/11/26 06:56:55;;;;;;;47.38;29.08;;;;;;;2.65;69.45;97637.31;2619309;54;20038;-67
2021/11/26 06:59:25;;;;;;;50.05;28.73;;;;;;;2.61;69.14;97632.59;2618671;39;20442;-68
2021/11/26 07:01:55;;;;;;;47.95;28.13;;;;;;;2.58;69.58;97635.56;2617768;47;20061;-67
2021/11/26 07:04:25;;;;;;;44.95;26.52;;;;;;;2.56;69.37;97630.50;2618115;54;20045;-68
2021/11/26 07:06:58;;;;;;;45.72;28.25;;;;;;;2.53;69.68;97630.88;2618590;39;20438;-66
2021/11/26 07:09:27;;;;;;;45.00;28.80;;;;;;;2.46;70.24;97630.72;2618160;54;20049;-67
2021/11/26 07:11:57;;;;;;;44.95;27.65;;;;;;;2.51;70.16;97624.19;2618457;54;20589;-67
2021/11/26 07:14:42;;;;;;;46.50;29.33;;;;;;;2.48;69.75;97610.47;2618016;54;20061;-68
2021/11/26 07:17:12;;;;;;;43.28;27.50;;;;;;;2.52;70.42;97613.56;2618027;54;20045;-67
2021/11/26 07:19:46;;;;;;;45.65;27.92;;;;;;;2.59;70.06;97609.28;2617592;54;20031;-66
2021/11/26 07:22:19;;;;;;;46.90;29.02;;;;;;;2.62;69.96;97606.34;2617269;54;20041;-66
2021/11/26 07:24:49;;;;;;;46.80;27.73;;;;;;;2.57;69.95;97602.59;2618153;54;20030;-66
2021/11/26 07:27:19;;;;;;;50.38;28.50;;;;;;;2.62;70.01;97613.38;2617420;47;20030;-66
2021/11/26 07:29:48;;;;;;;47.25;28.83;;;;;;;2.63;70.10;97599.34;2617360;54;20034;-66
2021/11/26 07:32:18;;;;;;;59.40;33.38;;;;;;;2.70;70.11;97601.09;2616431;54;20051;-67
2021/11/26 07:34:48;;;;;;;60.35;38.78;;;;;;;2.77;70.09;97606.41;2617933;54;20570;-66
2021/11/26 07:37:20;;;;;;;46.55;29.80;;;;;;;2.82;69.95;97595.47;2618325;54;20030;-66
2021/11/26 07:39:50;;;;;;;46.22;30.40;;;;;;;2.82;69.58;97593.69;2617268;51;20057;-66
2021/11/26 07:42:20;;;;;;;47.00;30.73;;;;;;;2.79;69.70;97590.59;2617952;54;20584;-66
2021/11/26 07:44:49;;;;;;;45.95;28.95;;;;;;;2.76;69.93;97583.91;2618359;54;20022;-66
2021/11/26 07:47:19;;;;;;;48.22;29.60;;;;;;;2.78;69.53;97581.16;2618763;39;20426;-67
2021/11/26 07:49:52;;;;;;;49.00;29.17;;;;;;;2.88;69.76;97582.53;2618957;39;20429;-66
2021/11/26 07:52:26;;;;;;;46.45;27.80;;;;;;;2.94;69.57;97581.84;2618239;54;20027;-66
2021/11/26 07:54:55;;;;;;;48.42;29.05;;;;;;;2.95;69.31;97575.63;2618429;47;20023;-67
2021/11/26 07:57:25;;;;;;;46.22;29.15;;;;;;;3.03;69.36;97571.34;2619385;54;20046;-67
2021/11/26 07:59:55;;;;;;;48.08;29.58;;;;;;;3.12;69.78;97571.09;2618984;47;20093;-67
2021/11/26 08:02:24;;;;;;;48.30;29.75;;;;;;;3.16;69.59;97563.72;2624179;54;20035;-66
2021/11/26 08:04:54;;;;;;;46.05;28.48;;;;;;;3.20;69.36;97565.00;2624645;54;20054;-67
2021/11/26 08:07:26;;;;;;;47.75;29.42;;;;;;;3.26;69.26;97558.25;2623744;54;20034;-67
2021/11/26 08:09:56;;;;;;;47.35;29.77;;;;;;;3.31;69.39;97564.59;2624315;54;20026;-67
2021/11/26 08:12:25;;;;;;;48.45;30.15;;;;;;;3.39;69.16;97556.69;2618964;54;20069;-67
2021/11/26 08:14:56;;;;;;;47.28;29.27;;;;;;;3.40;68.67;97562.72;2619023;47;20034;-66
2021/11/26 08:17:26;;;;;;;54.33;29.10;;;;;;;3.32;68.61;97563.59;2619283;54;20542;-67
2021/11/26 08:19:55;;;;;;;47.78;29.23;;;;;;;3.31;69.11;97567.19;2618470;47;20034;-68
2021/11/26 08:22:49;;;;;;;47.78;29.23;;;;;;;3.35;69.05;97558.03;2621468;54;20073;-68
2021/11/26 08:25:20;;;;;;;48.25;30.35;;;;;;;3.39;68.77;97555.88;2624304;54;20030;-68
2021/11/26 08:27:50;;;;;;;48.33;28.58;;;;;;;3.46;69.08;97554.16;2625179;39;20438;-70
2021/11/26 08:30:20;;;;;;;50.63;30.05;;;;;;;3.40;68.90;97547.84;2623426;54;20030;-69
2021/11/26 08:32:52;;;;;;;49.72;28.90;;;;;;;3.50;68.83;97552.81;2619108;54;20038;-70
2021/11/26 08:35:24;;;;;;;45.08;28.73;;;;;;;3.41;68.84;97541.63;2618504;54;20019;-68
2021/11/26 08:37:58;;;;;;;46.00;28.55;;;;;;;3.40;68.76;97541.81;2619137;54;20042;-68
2021/11/26 08:40:28;;;;;;;45.13;28.48;;;;;;;3.39;68.99;97538.41;2618241;47;20057;-68
2021/11/26 08:42:57;;;;;;;55.53;30.17;;;;;;;3.46;68.89;97534.06;2618784;54;20015;-68
2021/11/26 08:45:29;;;;;;;50.05;29.20;;;;;;;3.47;69.06;97530.47;2618869;54;20137;-68
2021/11/26 08:47:59;;;;;;;49.75;29.85;;;;;;;3.46;69.06;97528.84;2618009;47;20038;-68
2021/11/26 08:50:29;;;;;;;49.22;29.42;;;;;;;3.52;69.10;97526.53;2617977;47;20027;-68
2021/11/26 08:53:03;;;;;;;48.20;28.65;;;;;;;3.58;68.78;97520.56;2618627;54;20045;-68
2021/11/26 08:55:34;;;;;;;48.70;28.98;;;;;;;3.59;68.72;97522.19;2619557;39;20422;-68
2021/11/26 08:58:04;;;;;;;46.53;29.65;;;;;;;3.61;68.69;97513.19;2618126;54;20031;-68
2021/11/26 09:00:35;;;;;;;51.17;30.35;;;;;;;3.62;68.71;97503.53;2618575;54;20030;-68
2021/11/26 09:03:07;;;;;;;54.92;30.92;;;;;;;3.70;68.87;97506.88;2618121;54;20085;-68
2021/11/26 09:05:37;;;;;;;49.90;29.13;;;;;;;3.64;68.95;97502.38;2618638;54;20030;-67
2021/11/26 09:08:14;;;;;;;51.85;30.52;;;;;;;3.66;69.10;97499.56;2618025;54;20041;-68
2021/11/26 09:10:46;;;;;;;46.92;28.83;;;;;;;3.62;69.03;97504.34;2618491;54;20027;-68
2021/11/26 09:13:17;;;;;;;46.60;29.30;;;;;;;3.63;69.50;97498.16;2620735;39;20568;-68
2021/11/26 09:15:47;;;;;;;47.42;27.30;;;;;;;3.59;69.26;97494.28;2619497;54;20030;-67
2021/11/26 09:18:18;;;;;;;49.72;29.83;;;;;;;3.60;69.30;97482.81;2618680;54;20038;-67
2021/11/26 09:20:49;;;;;;;51.17;30.17;;;;;;;3.65;69.19;97490.91;2618647;54;20019;-67
2021/11/26 09:23:23;;;;;;;50.75;30.05;;;;;;;3.65;69.25;97488.31;2618699;54;20046;-66
2021/11/26 09:25:53;;;;;;;54.22;30.63;;;;;;;3.65;69.28;97490.13;2618354;54;20026;-67
2021/11/26 09:28:23;;;;;;;51.17;29.48;;;;;;;3.68;68.92;97484.53;2618822;54;20030;-66
2021/11/26 09:30:53;;;;;;;52.30;28.83;;;;;;;3.76;69.08;97478.41;2618917;47;20553;-67
2021/11/26 09:33:24;;;;;;;55.63;31.25;;;;;;;3.85;69.31;97469.47;2619294;54;20030;-66
2021/11/26 09:35:59;;;;;;;52.53;29.75;;;;;;;3.86;68.88;97473.69;2619916;54;20057;-67
2021/11/26 09:38:31;;;;;;;57.25;32.92;;;;;;;3.78;68.90;97466.75;2619076;54;20034;-66
2021/11/26 09:41:01;;;;;;;53.67;30.17;;;;;;;3.79;68.94;97464.94;2619272;54;20045;-66
2021/11/26 09:43:39;;;;;;;51.85;30.90;;;;;;;3.82;69.08;97454.94;2618819;54;20035;-66
2021/11/26 09:46:08;;;;;;;55.38;31.42;;;;;;;3.85;69.33;97449.34;2619114;54;20073;-67
2021/11/26 09:48:39;;;;;;;60.17;34.15;;;;;;;3.79;69.63;97439.63;2619784;54;20097;-66
2021/11/26 09:51:10;;;;;;;58.47;31.75;;;;;;;3.88;69.40;97435.94;2622714;54;20046;-67
2021/11/26 09:53:43;;;;;;;63.72;30.10;;;;;;;3.89;69.33;97427.09;2622972;39;20692;-68
2021/11/26 09:56:13;;;;;;;55.17;30.25;;;;;;;3.83;69.42;97424.38;2619698;54;20054;-68
2021/11/26 09:58:43;;;;;;;62.63;32.60;;;;;;;3.86;69.84;97421.41;2619396;54;20039;-68
2021/11/26 10:01:13;;;;;;;56.10;32.40;;;;;;;3.93;69.64;97409.22;2618448;54;20039;-68
2021/11/26 10:03:45;;;;;;;60.90;32.72;;;;;;;3.98;69.56;97415.50;2618239;54;20030;-67
2021/11/26 10:06:22;;;;;;;56.75;31.08;;;;;;;4.07;69.61;97407.56;2617894;47;20030;-68
2021/11/26 10:09:08;;;;;;;54.92;30.45;;;;;;;4.09;69.37;97411.63;2618031;47;20034;-68
2021/11/26 10:11:40;;;;;;;56.08;30.65;;;;;;;3.94;69.65;97411.66;2620310;39;20426;-68
2021/11/26 10:14:22;;;;;;;59.20;28.33;;;;;;;3.85;69.55;97406.72;2620300;47;20035;-68
2021/11/26 10:17:11;;;;;;;62.25;31.27;;;;;;;3.90;70.06;97402.56;2619120;54;20038;-68
2021/11/26 10:19:45;;;;;;;58.22;29.95;;;;;;;4.00;69.75;97398.81;2617768;47;20026;-68
2021/11/26 10:22:21;;;;;;;53.03;29.27;;;;;;;4.03;69.92;97394.03;2618623;39;20421;-68
2021/11/26 10:25:15;;;;;;;52.35;28.27;;;;;;;4.01;69.54;97395.22;2618269;54;20038;-69
2021/11/26 10:27:46;;;;;;;55.85;30.92;;;;;;;4.01;69.82;97384.78;2619703;39;20661;-68
2021/11/26 10:30:20;;;;;;;53.75;29.75;;;;;;;4.12;70.06;97381.66;2619648;54;20042;-68
2021/11/26 10:33:01;;;;;;;;;;;;;;;4.21;70.08;97377.94;2618317;54;20034;-66
2021/11/26 10:35:33;;;;;;;56.80;27.38;;;;;;;4.16;69.91;97359.34;2617682;54;20057;-68
2021/11/26 10:38:07;;;;;;;59.35;27.30;;;;;;;4.08;69.88;97365.53;2622278;39;20457;-70
2021/11/26 10:40:42;;;;;;;51.35;28.52;;;;;;;4.09;70.29;97358.50;2623964;47;20038;-70
2021/11/26 10:43:16;;;;;;;54.25;26.42;;;;;;;4.15;69.96;97349.91;2623973;54;20049;-69
2021/11/26 10:46:00;;;;;;;47.80;26.75;;;;;;;4.09;70.17;97342.81;2624720;54;20023;-70
2021/11/26 10:48:51;;;;;;;54.78;28.65;;;;;;;4.06;70.05;97341.38;2624266;54;20580;-69
2021/11/26 10:59:45;;;;;;;58.78;30.35;;;;;;;3.97;70.55;97317.16;2623892;54;20557;-70
2021/11/26 11:02:27;;;;;;;60.97;30.65;;;;;;;4.04;70.42;97312.00;2623795;54;20034;-69
2021/11/26 11:04:58;;;;;;;59.05;31.27;;;;;;;4.05;70.36;97304.97;2620243;54;20117;-70
2021/11/26 11:07:27;;;;;;;63.22;32.80;;;;;;;4.10;70.48;97294.75;2621733;54;20038;-69
2021/11/26 11:09:58;;;;;;;74.40;37.08;;;;;;;4.06;70.42;97286.44;2623506;54;20043;-68
2021/11/26 11:12:35;;;;;;;60.60;30.83;;;;;;;4.01;70.17;97290.63;2623656;54;20115;-69
2021/11/26 11:15:08;;;;;;;66.32;33.58;;;;;;;3.94;70.67;97288.75;2622876;47;20030;-72
2021/11/26 11:17:39;;;;;;;71.47;33.17;;;;;;;3.93;70.53;97287.16;2623476;54;20034;-68
2021/11/26 11:20:11;;;;;;;60.75;31.63;;;;;;;3.91;70.85;97286.50;2623745;54;20037;-69
2021/11/26 11:22:41;;;;;;;64.00;29.52;;;;;;;3.88;71.26;97281.69;2623759;54;20037;-69
2021/11/26 11:25:13;;;;;;;57.38;29.65;;;;;;;3.80;70.91;97263.50;2622236;54;20074;-69
2021/11/26 11:27:46;;;;;;;59.95;30.27;;;;;;;3.90;70.89;97261.38;2621412;54;20030;-69
2021/11/26 11:30:16;;;;;;;65.45;30.98;;;;;;;3.98;70.98;97263.84;2620098;54;20042;-69
2021/11/26 11:32:46;;;;;;;65.78;32.15;;;;;;;4.02;71.00;97253.03;2618988;54;20030;-69
2021/11/26 11:35:17;;;;;;;65.63;31.02;;;;;;;4.11;70.80;97251.88;2620298;54;20039;-69
2021/11/26 11:37:49;;;;;;;61.40;30.65;;;;;;;4.15;70.52;97259.16;2624856;54;20032;-69
2021/11/26 11:40:28;;;;;;;55.47;27.25;;;;;;;4.00;70.92;97244.53;2623881;54;20030;-68
2021/11/26 11:43:11;;;;;;;55.88;26.75;;;;;;;3.91;71.15;97241.25;2623679;54;20041;-69
2021/11/26 11:45:43;;;;;;;53.90;27.75;;;;;;;3.93;71.22;97245.31;2624193;54;20037;-69
2021/11/26 11:48:13;;;;;;;60.50;28.05;;;;;;;4.03;71.08;97233.72;2624181;54;20022;-68
2021/11/26 11:50:45;;;;;;;52.35;26.83;;;;;;;4.04;71.33;97232.72;2623985;54;20042;-69
2021/11/26 11:53:29;;;;;;;56.88;28.30;;;;;;;4.05;71.19;97229.13;2624261;54;20040;-70